createdAt,value
2023-05-05T00:00:16.107Z,69.61
2023-05-05T00:02:44.167Z,68.75
2023-05-05T00:05:11.689Z,68.24
2023-05-05T00:07:38.868Z,68.99
2023-05-05T00:10:10.078Z,69.59
2023-05-05T00:12:37.618Z,69.98
2023-05-05T00:15:05.179Z,70.41
2023-05-05T00:17:33.437Z,71.21
2023-05-05T00:20:00.631Z,71.08
2023-05-05T00:22:38.334Z,71.98
2023-05-05T00:25:08.232Z,72.58
2023-05-05T00:28:00.305Z,72.77
2023-05-05T00:30:28.128Z,72.90
2023-05-05T00:32:56.098Z,73.00
2023-05-05T00:35:23.395Z,72.66
2023-05-05T00:37:50.588Z,71.23
2023-05-05T00:40:25.817Z,70.83
2023-05-05T00:42:55.374Z,71.10
2023-05-05T00:45:22.321Z,71.88
2023-05-05T00:48:00.576Z,72.21
2023-05-05T00:50:30.602Z,71.85
2023-05-05T00:53:04.495Z,72.53
2023-05-05T00:55:33.111Z,72.86
2023-05-05T00:58:01.458Z,71.48
2023-05-05T01:00:29.105Z,71.16
2023-05-05T01:02:56.398Z,71.67
2023-05-05T01:05:28.479Z,72.90
2023-05-05T01:08:16.168Z,72.98
2023-05-05T01:10:55.655Z,73.15
2023-05-05T01:14:01.790Z,72.61
2023-05-05T01:16:35.902Z,72.81
2023-05-05T01:19:07.014Z,73.10
2023-05-05T01:22:34.844Z,72.73
2023-05-05T01:25:10.369Z,73.41
2023-05-05T01:27:58.728Z,73.77
2023-05-05T01:30:50.613Z,73.72
2023-05-05T01:33:26.008Z,73.95
2023-05-05T01:35:58.559Z,74.09
2023-05-05T01:38:35.162Z,73.72
2023-05-05T01:41:17.617Z,73.78
2023-05-05T01:43:48.195Z,74.13
2023-05-05T01:46:16.661Z,74.44
2023-05-05T01:48:46.095Z,74.79
2023-05-05T01:51:13.979Z,74.53
2023-05-05T01:53:41.900Z,74.89
2023-05-05T01:56:11.655Z,74.71
2023-05-05T01:58:39.710Z,75.17
2023-05-05T02:01:07.175Z,75.25
2023-05-05T02:03:42.721Z,74.97
2023-05-05T02:06:21.036Z,74.47
2023-05-05T02:08:49.923Z,74.94
2023-05-05T02:11:20.213Z,74.97
2023-05-05T02:13:54.808Z,75.18
2023-05-05T02:16:24.250Z,76.02
2023-05-05T02:18:55.927Z,76.09
2023-05-05T02:21:23.265Z,76.03
2023-05-05T02:23:52.215Z,76.20
2023-05-05T02:26:28.823Z,75.96
2023-05-05T02:29:04.578Z,76.16
2023-05-05T02:31:43.944Z,76.39
2023-05-05T02:34:16.219Z,76.76
2023-05-05T02:36:45.383Z,76.91
2023-05-05T02:39:32.212Z,76.78
2023-05-05T02:42:10.261Z,77.23
2023-05-05T02:44:42.704Z,77.29
2023-05-05T02:47:10.168Z,77.57
2023-05-05T02:49:37.570Z,77.93
2023-05-05T02:52:10.524Z,77.74
2023-05-05T02:54:42.195Z,77.70
2023-05-05T02:57:18.938Z,77.50
2023-05-05T03:00:16.840Z,77.35
2023-05-05T03:03:29.194Z,77.01
2023-05-05T03:06:10.596Z,76.79
2023-05-05T03:08:44.355Z,76.60
2023-05-05T03:11:59.474Z,76.46
2023-05-05T03:16:02.024Z,76.76
2023-05-05T03:18:38.770Z,76.48
2023-05-05T03:24:30.529Z,76.40
2023-05-05T03:27:19.013Z,76.32
2023-05-05T03:29:49.501Z,77.03
2023-05-05T03:32:24.550Z,75.16
2023-05-05T03:35:00.256Z,74.35
2023-05-05T03:37:57.467Z,74.99
2023-05-05T03:40:40.450Z,76.01
2023-05-05T03:43:11.095Z,75.04
2023-05-05T03:45:38.157Z,74.09
2023-05-05T03:48:10.003Z,73.47
2023-05-05T03:50:46.536Z,72.69
2023-05-05T03:53:21.319Z,73.35
2023-05-05T03:55:48.629Z,74.18
2023-05-05T03:58:17.016Z,75.14
2023-05-05T04:00:46.880Z,75.61
2023-05-05T04:03:20.044Z,76.41
2023-05-05T04:05:56.455Z,76.44
2023-05-05T04:08:23.457Z,76.75
2023-05-05T04:10:50.515Z,74.84
2023-05-05T04:13:20.341Z,74.79
2023-05-05T04:15:51.273Z,75.34
2023-05-05T04:18:33.585Z,75.49
2023-05-05T04:21:45.615Z,75.11
2023-05-05T04:24:12.980Z,75.24
2023-05-05T04:26:43.888Z,73.30
2023-05-05T04:29:11.315Z,74.48
2023-05-05T04:31:38.468Z,75.08
2023-05-05T04:34:14.291Z,74.74
2023-05-05T04:36:42.103Z,75.21
2023-05-05T04:39:10.898Z,75.34
2023-05-05T04:41:37.919Z,75.97
2023-05-05T04:44:05.042Z,74.94
2023-05-05T04:46:35.177Z,74.77
2023-05-05T04:49:03.918Z,72.14
2023-05-05T04:51:32.424Z,70.58
2023-05-05T04:53:59.438Z,71.90
2023-05-05T04:56:33.949Z,72.74
2023-05-05T04:59:05.143Z,72.24
2023-05-05T05:01:36.912Z,70.14
2023-05-05T05:04:05.927Z,68.29
2023-05-05T05:06:35.895Z,67.32
2023-05-05T05:09:03.895Z,66.61
2023-05-05T05:11:30.989Z,67.53
2023-05-05T05:13:58.038Z,69.46
2023-05-05T05:16:26.689Z,68.89
2023-05-05T05:18:54.976Z,68.42
2023-05-05T05:21:24.053Z,67.79
2023-05-05T05:23:54.030Z,67.71
2023-05-05T05:26:24.986Z,68.67
2023-05-05T05:28:52.974Z,67.63
2023-05-05T05:31:19.984Z,66.29
2023-05-05T05:33:51.376Z,65.26
2023-05-05T05:36:20.424Z,66.58
2023-05-05T05:38:47.332Z,65.76
2023-05-05T05:41:14.482Z,66.52
2023-05-05T05:43:43.130Z,68.18
2023-05-05T05:46:11.054Z,67.65
2023-05-05T05:48:40.015Z,67.09
2023-05-05T05:51:07.022Z,67.86
2023-05-05T05:53:34.012Z,67.83
2023-05-05T05:56:05.986Z,68.07
2023-05-05T05:58:36.245Z,67.63
2023-05-05T06:01:05.698Z,66.43
2023-05-05T06:03:34.215Z,65.95
2023-05-05T06:06:03.947Z,65.39
2023-05-05T06:08:30.953Z,66.87
2023-05-05T06:11:06.893Z,67.83
2023-05-05T06:13:35.465Z,68.27
2023-05-05T06:16:16.702Z,68.20
2023-05-05T06:18:57.512Z,67.17
2023-05-05T06:21:24.979Z,66.60
2023-05-05T06:23:53.118Z,66.47
2023-05-05T06:26:20.402Z,66.51
2023-05-05T06:28:48.101Z,66.26
2023-05-05T06:31:16.114Z,65.10
2023-05-05T06:33:43.264Z,65.43
2023-05-05T06:36:10.281Z,65.56
2023-05-05T06:38:37.820Z,65.67
2023-05-05T06:41:04.933Z,65.69
2023-05-05T06:43:32.081Z,64.99
2023-05-05T06:46:04.966Z,64.94
2023-05-05T06:48:34.622Z,64.97
2023-05-05T06:51:03.115Z,64.21
2023-05-05T06:53:30.197Z,64.90
2023-05-05T06:56:01.170Z,65.08
2023-05-05T06:58:31.176Z,64.87
2023-05-05T07:00:58.693Z,63.78
2023-05-05T07:03:26.448Z,65.30
2023-05-05T07:05:57.853Z,65.43
2023-05-05T07:08:25.480Z,65.26
2023-05-05T07:10:52.494Z,64.27
2023-05-05T07:13:21.098Z,64.38
2023-05-05T07:15:48.213Z,63.96
2023-05-05T07:18:22.077Z,63.13
2023-05-05T07:20:49.066Z,63.68
2023-05-05T07:23:16.580Z,63.91
2023-05-05T07:25:45.151Z,63.60
2023-05-05T07:28:12.159Z,63.19
2023-05-05T07:30:39.117Z,63.65
2023-05-05T07:33:09.023Z,62.50
2023-05-05T07:35:37.115Z,63.22
2023-05-05T07:38:05.177Z,63.35
2023-05-05T07:40:36.764Z,63.29
2023-05-05T07:43:03.670Z,63.26
2023-05-05T07:45:30.700Z,63.39
2023-05-05T07:47:57.856Z,62.92
2023-05-05T07:50:25.556Z,62.63
2023-05-05T07:53:10.756Z,61.73
2023-05-05T07:55:55.661Z,58.79
2023-05-05T07:58:22.560Z,58.53
2023-05-05T08:00:51.244Z,61.01
2023-05-05T08:03:21.982Z,60.93
2023-05-05T08:05:50.616Z,58.05
2023-05-05T08:08:18.639Z,60.25
2023-05-05T08:10:46.704Z,59.49
2023-05-05T08:13:16.320Z,58.54
2023-05-05T08:15:57.066Z,59.75
2023-05-05T08:18:34.435Z,59.14
2023-05-05T08:21:02.306Z,60.10
2023-05-05T08:23:31.342Z,60.72
2023-05-05T08:26:04.967Z,60.42
2023-05-05T08:28:34.906Z,57.69
2023-05-05T08:31:16.513Z,57.53
2023-05-05T08:33:46.669Z,57.16
2023-05-05T08:36:14.070Z,57.34
2023-05-05T08:38:41.020Z,58.00
2023-05-05T08:41:15.752Z,58.92
2023-05-05T08:43:47.119Z,59.09
2023-05-05T08:46:14.329Z,59.18
2023-05-05T08:48:43.725Z,58.85
2023-05-05T08:51:18.792Z,59.38
2023-05-05T08:54:01.642Z,58.33
2023-05-05T08:56:34.739Z,58.37
2023-05-05T08:59:02.951Z,59.59
2023-05-05T09:01:32.711Z,52.43
2023-05-05T09:04:04.357Z,54.57
2023-05-05T09:06:34.141Z,56.39
2023-05-05T09:09:02.606Z,56.64
2023-05-05T09:11:30.643Z,57.10
2023-05-05T09:13:57.887Z,56.50
2023-05-05T09:16:26.772Z,51.72
2023-05-05T09:19:05.276Z,50.19
2023-05-05T09:21:32.698Z,52.30
2023-05-05T09:24:11.449Z,51.47
2023-05-05T09:26:42.794Z,53.97
2023-05-05T09:29:10.000Z,50.80
2023-05-05T09:31:40.791Z,54.01
2023-05-05T09:34:17.245Z,45.87
2023-05-05T09:36:47.910Z,48.10
2023-05-05T09:39:22.365Z,43.55
2023-05-05T09:41:53.323Z,40.87
2023-05-05T09:44:37.806Z,45.54
2023-05-05T09:47:18.090Z,49.39
2023-05-05T09:50:05.414Z,49.19
2023-05-05T09:52:32.521Z,48.02
2023-05-05T09:55:01.658Z,50.20
2023-05-05T09:57:35.853Z,51.70
2023-05-05T10:00:06.102Z,49.97
2023-05-05T10:02:39.417Z,50.31
2023-05-05T10:05:15.092Z,48.47
2023-05-05T10:07:46.475Z,49.97
2023-05-05T10:10:15.520Z,51.11
2023-05-05T10:12:43.061Z,45.12
2023-05-05T10:15:11.619Z,42.92
2023-05-05T10:18:02.360Z,44.35
2023-05-05T10:20:36.535Z,43.45
2023-05-05T10:23:07.281Z,45.89
2023-05-05T10:25:58.671Z,47.18
2023-05-05T10:28:33.325Z,47.37
2023-05-05T10:31:05.734Z,48.30
2023-05-05T10:34:10.574Z,48.65
2023-05-05T10:36:42.356Z,44.75
2023-05-05T10:39:11.088Z,47.57
2023-05-05T10:41:38.335Z,47.83
2023-05-05T10:44:11.037Z,48.09
2023-05-05T10:46:41.344Z,48.26
2023-05-05T10:49:08.246Z,47.53
2023-05-05T10:51:42.194Z,47.23
2023-05-05T10:54:45.858Z,46.93
2023-05-05T10:57:19.062Z,43.55
2023-05-05T10:59:47.912Z,45.40
2023-05-05T11:02:29.711Z,47.20
2023-05-05T11:05:18.613Z,44.33
2023-05-05T11:07:48.357Z,43.26
2023-05-05T11:10:17.933Z,44.18
2023-05-05T11:13:02.327Z,39.34
2023-05-05T11:15:39.988Z,41.33
2023-05-05T11:18:37.072Z,37.60
2023-05-05T11:21:08.168Z,42.71
2023-05-05T11:23:35.546Z,45.28
2023-05-05T11:26:02.482Z,45.61
2023-05-05T11:28:31.833Z,44.41
2023-05-05T11:31:01.726Z,42.77
2023-05-05T11:33:34.196Z,43.97
2023-05-05T11:36:06.696Z,45.94
2023-05-05T11:39:10.637Z,46.58
2023-05-05T11:41:49.669Z,45.93
2023-05-05T11:44:29.477Z,46.12
2023-05-05T11:47:02.815Z,46.33
2023-05-05T11:49:37.785Z,45.60
2023-05-05T11:52:15.258Z,43.15
2023-05-05T11:54:51.075Z,44.80
2023-05-05T11:57:32.126Z,45.41
2023-05-05T12:00:08.509Z,44.61
2023-05-05T12:02:41.337Z,45.60
2023-05-05T12:05:11.665Z,46.32
2023-05-05T12:07:42.257Z,46.27
2023-05-05T12:10:12.430Z,45.53
2023-05-05T12:12:43.368Z,45.52
2023-05-05T12:15:13.117Z,44.75
2023-05-05T12:17:46.253Z,43.08
2023-05-05T12:20:13.741Z,41.75
2023-05-05T12:22:46.548Z,41.36
2023-05-05T12:25:14.832Z,41.64
2023-05-05T12:27:52.465Z,43.10
2023-05-05T12:30:20.776Z,43.83
2023-05-05T12:33:01.932Z,43.91
2023-05-05T12:35:32.634Z,43.69
2023-05-05T12:37:59.700Z,44.67
2023-05-05T12:40:52.171Z,43.29
2023-05-05T12:43:29.679Z,43.44
2023-05-05T12:46:07.139Z,44.66
2023-05-05T12:48:47.240Z,43.76
2023-05-05T12:51:23.820Z,40.37
2023-05-05T12:54:11.655Z,41.10
2023-05-05T12:56:41.888Z,42.22
2023-05-05T12:59:33.216Z,42.14
2023-05-05T13:02:03.861Z,43.04
2023-05-05T13:04:48.938Z,44.25
2023-05-05T13:07:17.168Z,44.06
2023-05-05T13:09:46.298Z,44.11
2023-05-05T13:12:20.740Z,43.02
2023-05-05T13:14:49.387Z,42.01
2023-05-05T13:17:19.300Z,43.58
2023-05-05T13:19:46.816Z,44.29
2023-05-05T13:22:17.913Z,45.35
2023-05-05T13:24:52.355Z,44.46
2023-05-05T13:27:20.718Z,43.97
2023-05-05T13:29:48.046Z,44.51
2023-05-05T13:32:15.108Z,44.67
2023-05-05T13:34:44.539Z,45.70
2023-05-05T13:37:11.591Z,45.73
2023-05-05T13:39:38.695Z,44.29
2023-05-05T13:42:10.775Z,44.42
2023-05-05T13:44:53.693Z,45.40
2023-05-05T13:47:21.354Z,45.75
2023-05-05T13:49:49.215Z,46.14
2023-05-05T13:52:18.946Z,44.96
2023-05-05T13:54:45.938Z,44.23
2023-05-05T13:57:24.290Z,45.57
2023-05-05T13:59:52.457Z,45.25
2023-05-05T14:02:21.622Z,45.85
2023-05-05T14:04:50.466Z,46.14
2023-05-05T14:07:34.024Z,47.81
2023-05-05T14:10:03.712Z,48.02
2023-05-05T14:12:33.737Z,48.67
2023-05-05T14:15:09.200Z,47.32
2023-05-05T14:17:48.345Z,47.60
2023-05-05T14:20:22.775Z,47.07
2023-05-05T14:22:50.976Z,47.18
2023-05-05T14:25:24.324Z,46.39
2023-05-05T14:28:10.516Z,47.40
2023-05-05T14:30:41.159Z,47.41
2023-05-05T14:33:08.263Z,46.61
2023-05-05T14:35:45.512Z,46.09
2023-05-05T14:38:12.690Z,45.87
2023-05-05T14:40:48.561Z,46.15
2023-05-05T14:43:16.010Z,46.93
2023-05-05T14:45:44.541Z,47.82
2023-05-05T14:48:11.863Z,47.95
2023-05-05T14:50:44.763Z,48.56
2023-05-05T14:53:18.554Z,45.45
2023-05-05T14:55:46.333Z,44.91
2023-05-05T14:58:13.738Z,45.81
2023-05-05T15:00:41.041Z,45.89
2023-05-05T15:03:08.187Z,46.33
2023-05-05T15:05:45.838Z,44.12
2023-05-05T15:08:19.537Z,44.89
2023-05-05T15:11:16.338Z,45.93
2023-05-05T15:13:43.258Z,46.04
2023-05-05T15:16:14.816Z,44.45
2023-05-05T15:18:42.023Z,43.55
2023-05-05T15:21:09.175Z,43.40
2023-05-05T15:23:37.520Z,43.49
2023-05-05T15:26:12.365Z,44.88
2023-05-05T15:28:39.413Z,44.67
2023-05-05T15:31:06.601Z,43.88
2023-05-05T15:33:33.894Z,44.34
2023-05-05T15:36:00.912Z,42.90
2023-05-05T15:38:29.390Z,43.48
2023-05-05T15:40:56.530Z,43.89
2023-05-05T15:43:23.593Z,44.46
2023-05-05T15:45:51.747Z,45.19
2023-05-05T15:48:20.334Z,46.77
2023-05-05T15:50:47.796Z,46.35
2023-05-05T15:53:20.993Z,46.86
2023-05-05T15:55:49.292Z,47.07
2023-05-05T15:58:16.286Z,47.97
2023-05-05T16:00:47.197Z,48.95
2023-05-05T16:03:14.385Z,49.30
2023-05-05T16:05:42.195Z,49.33
2023-05-05T16:08:11.248Z,49.11
2023-05-05T16:10:38.345Z,49.91
2023-05-05T16:13:05.337Z,50.34
2023-05-05T16:15:32.413Z,49.58
2023-05-05T16:17:59.787Z,49.51
2023-05-05T16:20:27.615Z,48.58
2023-05-05T16:22:55.906Z,47.57
2023-05-05T16:25:23.916Z,45.86
2023-05-05T16:27:51.042Z,45.63
2023-05-05T16:30:18.039Z,44.63
2023-05-05T16:32:53.165Z,45.00
2023-05-05T16:35:25.456Z,45.66
2023-05-05T16:37:54.272Z,45.33
2023-05-05T16:40:21.744Z,42.09
2023-05-05T16:42:48.825Z,41.93
2023-05-05T16:45:17.602Z,42.77
2023-05-05T16:47:55.653Z,43.63
2023-05-05T16:50:23.634Z,44.78
2023-05-05T16:52:51.116Z,44.81
2023-05-05T16:55:18.064Z,44.58
2023-05-05T16:57:44.969Z,45.64
2023-05-05T17:03:01.051Z,46.72
2023-05-05T17:05:30.848Z,47.28
2023-05-05T17:07:57.863Z,47.88
2023-05-05T17:10:24.955Z,48.48
2023-05-05T17:12:51.950Z,49.65
2023-05-05T17:15:18.963Z,49.90
2023-05-05T17:17:55.211Z,50.16
2023-05-05T17:20:23.048Z,50.37
2023-05-05T17:22:59.001Z,50.42
2023-05-05T17:25:33.406Z,50.40
2023-05-05T17:28:00.472Z,50.60
2023-05-05T17:30:27.934Z,50.64
2023-05-05T17:32:54.956Z,51.37
2023-05-05T17:35:39.312Z,51.42
2023-05-05T17:38:07.242Z,51.70
2023-05-05T17:40:34.183Z,51.67
2023-05-05T17:43:01.164Z,51.84
2023-05-05T17:45:28.259Z,51.75
2023-05-05T17:47:55.450Z,51.92
2023-05-05T17:50:22.582Z,51.79
2023-05-05T17:52:59.714Z,51.27
2023-05-05T17:55:27.322Z,51.66
2023-05-05T17:57:56.399Z,52.89
2023-05-05T18:00:23.522Z,52.11
2023-05-05T18:03:01.366Z,52.72
2023-05-05T18:05:30.747Z,52.75
2023-05-05T18:07:58.465Z,53.92
2023-05-05T18:10:26.105Z,53.24
2023-05-05T18:12:53.354Z,54.65
2023-05-05T18:15:23.784Z,54.38
2023-05-05T18:17:50.981Z,55.35
2023-05-05T18:20:18.615Z,54.83
2023-05-05T18:22:52.458Z,54.22
2023-05-05T18:25:20.219Z,55.19
2023-05-05T18:27:47.664Z,55.99
2023-05-05T18:30:17.902Z,54.74
2023-05-05T18:32:46.714Z,55.06
2023-05-05T18:35:14.662Z,54.21
2023-05-05T18:37:42.601Z,54.89
2023-05-05T18:40:15.990Z,55.08
2023-05-05T18:42:44.215Z,54.88
2023-05-05T18:45:11.582Z,55.03
2023-05-05T18:47:40.661Z,55.02
2023-05-05T18:50:08.942Z,55.52
2023-05-05T18:52:47.775Z,55.68
2023-05-05T18:55:15.444Z,54.82
2023-05-05T18:57:50.030Z,55.61
2023-05-05T19:00:23.958Z,55.52
2023-05-05T19:02:51.931Z,56.21
2023-05-05T19:05:19.169Z,56.09
2023-05-05T19:07:56.255Z,56.97
2023-05-05T19:10:23.468Z,56.50
2023-05-05T19:12:58.631Z,56.20
2023-05-05T19:15:29.492Z,56.06
2023-05-05T19:18:06.745Z,55.48
2023-05-05T19:20:38.839Z,55.42
2023-05-05T19:23:07.421Z,55.73
2023-05-05T19:25:41.134Z,56.16
2023-05-05T19:28:08.100Z,56.82
2023-05-05T19:30:35.394Z,56.29
2023-05-05T19:33:05.918Z,55.75
2023-05-05T19:35:33.142Z,56.36
2023-05-05T19:38:00.227Z,56.82
2023-05-05T19:40:31.543Z,57.53
2023-05-05T19:43:01.385Z,57.21
2023-05-05T19:45:28.314Z,55.92
2023-05-05T19:47:55.337Z,56.28
2023-05-05T19:50:22.415Z,58.31
2023-05-05T19:52:49.758Z,58.22
2023-05-05T19:55:18.987Z,56.78
2023-05-05T19:57:46.005Z,56.62
2023-05-05T20:00:13.462Z,57.22
2023-05-05T20:02:41.585Z,59.01
2023-05-05T20:05:09.272Z,58.92
2023-05-05T20:07:36.492Z,58.97
2023-05-05T20:10:11.525Z,58.47
2023-05-05T20:12:42.072Z,57.19
2023-05-05T20:15:11.280Z,58.13
2023-05-05T20:17:40.365Z,59.45
2023-05-05T20:20:08.127Z,59.20
2023-05-05T20:22:35.199Z,59.15
2023-05-05T20:25:03.671Z,59.33
2023-05-05T20:27:30.780Z,59.31
2023-05-05T20:29:57.919Z,60.06
2023-05-05T20:32:25.265Z,59.87
2023-05-05T20:34:52.306Z,60.42
2023-05-05T20:37:19.336Z,59.88
2023-05-05T20:39:50.219Z,59.87
2023-05-05T20:42:28.629Z,60.22
2023-05-05T20:44:58.309Z,60.90
2023-05-05T20:47:25.407Z,58.83
2023-05-05T20:49:52.719Z,61.02
2023-05-05T20:52:21.822Z,61.22
2023-05-05T20:54:48.790Z,61.66
2023-05-05T20:57:18.633Z,62.04
2023-05-05T20:59:46.683Z,62.06
2023-05-05T21:02:13.718Z,61.88
2023-05-05T21:04:40.853Z,61.62
2023-05-05T21:07:07.864Z,61.80
2023-05-05T21:09:37.739Z,62.29
2023-05-05T21:12:05.219Z,63.03
2023-05-05T21:14:32.336Z,62.40
2023-05-05T21:16:59.408Z,62.08
2023-05-05T21:19:26.396Z,62.55
2023-05-05T21:21:54.202Z,62.65
2023-05-05T21:24:24.452Z,61.89
2023-05-05T21:26:56.674Z,61.29
2023-05-05T21:29:27.309Z,62.91
2023-05-05T21:32:04.307Z,62.55
2023-05-05T21:34:32.435Z,61.12
2023-05-05T21:37:08.312Z,62.13
2023-05-05T21:39:36.598Z,61.91
2023-05-05T21:42:03.638Z,62.04
2023-05-05T21:44:31.325Z,62.21
2023-05-05T21:47:04.049Z,62.54
2023-05-05T21:49:30.994Z,62.68
2023-05-05T21:52:09.683Z,61.86
2023-05-05T21:54:49.897Z,61.08
2023-05-05T21:57:17.128Z,61.81
2023-05-05T21:59:47.547Z,62.27
2023-05-05T22:02:14.795Z,61.58
2023-05-05T22:04:42.467Z,61.96
2023-05-05T22:07:09.642Z,60.25
2023-05-05T22:09:36.669Z,60.45
2023-05-05T22:12:04.217Z,60.00
2023-05-05T22:14:40.314Z,60.40
2023-05-05T22:17:07.384Z,61.56
2023-05-05T22:19:34.374Z,62.36
2023-05-05T22:22:01.715Z,62.59
2023-05-05T22:24:31.688Z,62.17
2023-05-05T22:27:19.709Z,61.94
2023-05-05T22:29:46.976Z,62.26
2023-05-05T22:32:14.070Z,62.09
2023-05-05T22:34:41.131Z,60.96
2023-05-05T22:37:10.853Z,61.89
2023-05-05T22:39:56.004Z,61.92
2023-05-05T22:42:34.832Z,61.14
2023-05-05T22:45:02.115Z,60.75
2023-05-05T22:47:29.217Z,61.99
2023-05-05T22:50:01.680Z,61.78
2023-05-05T22:52:29.348Z,61.22
2023-05-05T22:54:56.832Z,60.82
2023-05-05T22:57:23.859Z,61.17
2023-05-05T23:00:00.490Z,62.05
2023-05-05T23:02:27.736Z,62.96
2023-05-05T23:04:54.835Z,62.94
2023-05-05T23:07:24.280Z,62.39
2023-05-05T23:09:51.154Z,62.27
2023-05-05T23:12:18.424Z,63.57
2023-05-05T23:14:45.530Z,63.77
2023-05-05T23:17:16.440Z,63.64
2023-05-05T23:19:48.461Z,63.75
2023-05-05T23:22:15.436Z,64.42
2023-05-05T23:24:43.235Z,65.09
2023-05-05T23:27:12.649Z,64.97
2023-05-05T23:29:40.396Z,64.42
2023-05-05T23:32:10.381Z,64.92
2023-05-05T23:34:37.349Z,65.82
2023-05-05T23:37:06.223Z,66.10
2023-05-05T23:39:38.055Z,65.69
2023-05-05T23:42:05.033Z,66.32
2023-05-05T23:44:32.155Z,66.35
2023-05-05T23:47:06.954Z,65.84
2023-05-05T23:49:33.911Z,66.62
2023-05-05T23:52:04.020Z,67.47
2023-05-05T23:54:30.974Z,66.63
2023-05-05T23:56:58.944Z,67.29
2023-05-05T23:59:26.705Z,66.89
